sensor_id;sensor_type;location;lat;lon;timestamp;pressure;altitude;pressure_sealevel;temperature;humidity
57594;BME280;43423;46.510;6.686;2022-10-16T00:01:09;96458.97;;;15.41;77.28
57594;BME280;43423;46.510;6.686;2022-10-16T00:03:37;96452.66;;;15.40;77.17
57594;BME280;43423;46.510;6.686;2022-10-16T00:06:04;96454.69;;;15.40;77.52
57594;BME280;43423;46.510;6.686;2022-10-16T00:08:30;96455.47;;;15.34;77.53
57594;BME280;43423;46.510;6.686;2022-10-16T00:11:13;96450.69;;;15.35;77.11
57594;BME280;43423;46.510;6.686;2022-10-16T00:13:41;96460.81;;;15.21;77.69
57594;BME280;43423;46.510;6.686;2022-10-16T00:16:08;96453.03;;;15.14;78.34
57594;BME280;43423;46.510;6.686;2022-10-16T00:18:34;96449.28;;;15.12;77.61
57594;BME280;43423;46.510;6.686;2022-10-16T00:21:05;96455.03;;;15.19;77.54
57594;BME280;43423;46.510;6.686;2022-10-16T00:23:31;96461.56;;;15.16;78.03
57594;BME280;43423;46.510;6.686;2022-10-16T00:25:58;96462.59;;;15.13;78.32
57594;BME280;43423;46.510;6.686;2022-10-16T00:28:24;96455.28;;;15.16;77.43
57594;BME280;43423;46.510;6.686;2022-10-16T00:30:50;96454.75;;;15.23;77.38
57594;BME280;43423;46.510;6.686;2022-10-16T00:33:16;96456.25;;;15.29;77.08
57594;BME280;43423;46.510;6.686;2022-10-16T00:35:41;96459.00;;;15.35;75.96
57594;BME280;43423;46.510;6.686;2022-10-16T00:38:07;96459.97;;;15.43;75.06
57594;BME280;43423;46.510;6.686;2022-10-16T00:40:32;96456.88;;;15.58;71.70
57594;BME280;43423;46.510;6.686;2022-10-16T00:42:58;96465.97;;;15.64;72.70
57594;BME280;43423;46.510;6.686;2022-10-16T00:45:24;96457.88;;;15.66;71.31
57594;BME280;43423;46.510;6.686;2022-10-16T00:47:50;96453.34;;;15.63;72.98
57594;BME280;43423;46.510;6.686;2022-10-16T00:50:27;96451.84;;;15.62;71.63
57594;BME280;43423;46.510;6.686;2022-10-16T00:52:54;96456.59;;;15.73;71.31
57594;BME280;43423;46.510;6.686;2022-10-16T00:55:21;96469.72;;;15.67;71.62
57594;BME280;43423;46.510;6.686;2022-10-16T00:57:48;96462.91;;;15.68;72.16
57594;BME280;43423;46.510;6.686;2022-10-16T01:00:21;96468.94;;;15.60;73.16
57594;BME280;43423;46.510;6.686;2022-10-16T01:02:55;96467.00;;;15.50;72.84
57594;BME280;43423;46.510;6.686;2022-10-16T01:05:23;96467.00;;;15.50;73.88
57594;BME280;43423;46.510;6.686;2022-10-16T01:08:54;96467.00;;;15.50;73.73
57594;BME280;43423;46.510;6.686;2022-10-16T01:11:19;96473.06;;;15.48;72.86
57594;BME280;43423;46.510;6.686;2022-10-16T01:13:52;96471.06;;;15.38;73.49
57594;BME280;43423;46.510;6.686;2022-10-16T01:16:44;96472.31;;;15.42;72.79
57594;BME280;43423;46.510;6.686;2022-10-16T01:19:18;96465.75;;;15.45;73.69
57594;BME280;43423;46.510;6.686;2022-10-16T01:21:47;96470.31;;;15.43;74.11
57594;BME280;43423;46.510;6.686;2022-10-16T01:24:31;96463.72;;;15.46;74.06
57594;BME280;43423;46.510;6.686;2022-10-16T01:27:30;96473.31;;;15.45;74.45
57594;BME280;43423;46.510;6.686;2022-10-16T01:30:10;96468.03;;;15.41;73.96
57594;BME280;43423;46.510;6.686;2022-10-16T01:32:54;96471.81;;;15.38;74.88
57594;BME280;43423;46.510;6.686;2022-10-16T01:35:25;96472.09;;;15.34;75.03
57594;BME280;43423;46.510;6.686;2022-10-16T01:37:53;96480.41;;;15.34;74.77
57594;BME280;43423;46.510;6.686;2022-10-16T01:40:24;96473.81;;;15.43;74.81
57594;BME280;43423;46.510;6.686;2022-10-16T01:43:04;96476.38;;;15.30;75.99
57594;BME280;43423;46.510;6.686;2022-10-16T01:45:31;96476.13;;;15.33;76.19
57594;BME280;43423;46.510;6.686;2022-10-16T01:48:00;96484.19;;;15.31;75.49
57594;BME280;43423;46.510;6.686;2022-10-16T01:50:31;96479.91;;;15.36;74.15
57594;BME280;43423;46.510;6.686;2022-10-16T01:53:00;96476.34;;;15.41;74.17
57594;BME280;43423;46.510;6.686;2022-10-16T01:55:33;96478.16;;;15.27;76.28
57594;BME280;43423;46.510;6.686;2022-10-16T01:58:02;96477.66;;;15.34;75.33
57594;BME280;43423;46.510;6.686;2022-10-16T02:00:30;96471.59;;;15.30;75.05
57594;BME280;43423;46.510;6.686;2022-10-16T02:02:57;96468.56;;;15.34;75.39
57594;BME280;43423;46.510;6.686;2022-10-16T02:05:42;96467.56;;;15.31;74.83
57594;BME280;43423;46.510;6.686;2022-10-16T02:08:10;96469.34;;;15.34;74.80
57594;BME280;43423;46.510;6.686;2022-10-16T02:10:36;96466.03;;;15.36;73.86
57594;BME280;43423;46.510;6.686;2022-10-16T02:13:16;96468.03;;;15.41;74.92
57594;BME280;43423;46.510;6.686;2022-10-16T02:15:42;96464.53;;;15.41;74.25
57594;BME280;43423;46.510;6.686;2022-10-16T02:18:09;96459.22;;;15.43;74.63
57594;BME280;43423;46.510;6.686;2022-10-16T02:20:51;96451.16;;;15.45;74.41
57594;BME280;43423;46.510;6.686;2022-10-16T02:23:45;96448.06;;;15.54;69.09
57594;BME280;43423;46.510;6.686;2022-10-16T02:26:12;96453.84;;;15.67;68.62
57594;BME280;43423;46.510;6.686;2022-10-16T02:28:42;96457.63;;;15.58;71.01
57594;BME280;43423;46.510;6.686;2022-10-16T02:31:12;96456.63;;;15.56;73.23
57594;BME280;43423;46.510;6.686;2022-10-16T02:33:42;96449.34;;;15.53;72.26
57594;BME280;43423;46.510;6.686;2022-10-16T02:36:09;96461.25;;;15.42;73.15
57594;BME280;43423;46.510;6.686;2022-10-16T02:38:36;96452.50;;;15.21;73.70
57594;BME280;43423;46.510;6.686;2022-10-16T02:41:03;96453.25;;;15.16;74.38
57594;BME280;43423;46.510;6.686;2022-10-16T02:43:28;96462.81;;;15.26;73.51
57594;BME280;43423;46.510;6.686;2022-10-16T02:45:54;96468.81;;;15.30;72.17
57594;BME280;43423;46.510;6.686;2022-10-16T02:48:20;96474.06;;;15.40;72.63
57594;BME280;43423;46.510;6.686;2022-10-16T02:50:45;96464.03;;;15.31;71.48
57594;BME280;43423;46.510;6.686;2022-10-16T02:53:11;96472.09;;;15.34;71.41
57594;BME280;43423;46.510;6.686;2022-10-16T02:55:36;96466.03;;;15.36;72.38
57594;BME280;43423;46.510;6.686;2022-10-16T02:58:02;96464.53;;;15.41;69.74
57594;BME280;43423;46.510;6.686;2022-10-16T03:00:28;96466.03;;;15.42;71.36
57594;BME280;43423;46.510;6.686;2022-10-16T03:02:54;96468.34;;;15.26;72.19
57594;BME280;43423;46.510;6.686;2022-10-16T03:05:19;96468.88;;;15.25;72.61
57594;BME280;43423;46.510;6.686;2022-10-16T03:07:45;96477.66;;;15.23;72.59
57594;BME280;43423;46.510;6.686;2022-10-16T03:10:10;96471.19;;;15.10;74.12
57594;BME280;43423;46.510;6.686;2022-10-16T03:12:36;96479.22;;;15.13;73.78
57594;BME280;43423;46.510;6.686;2022-10-16T03:15:02;96481.69;;;15.22;73.78
57594;BME280;43423;46.510;6.686;2022-10-16T03:17:27;96479.72;;;15.17;73.52
57594;BME280;43423;46.510;6.686;2022-10-16T03:19:53;96480.19;;;15.21;72.42
57594;BME280;43423;46.510;6.686;2022-10-16T03:22:18;96482.97;;;15.27;72.57
57594;BME280;43423;46.510;6.686;2022-10-16T03:24:44;96477.66;;;15.23;73.34
57594;BME280;43423;46.510;6.686;2022-10-16T03:27:09;96479.22;;;15.19;73.59
57594;BME280;43423;46.510;6.686;2022-10-16T03:29:35;96488.28;;;15.19;73.00
57594;BME280;43423;46.510;6.686;2022-10-16T03:32:01;96484.28;;;15.09;74.32
57594;BME280;43423;46.510;6.686;2022-10-16T03:34:26;96489.28;;;15.16;74.06
57594;BME280;43423;46.510;6.686;2022-10-16T03:36:53;96483.28;;;15.01;75.60
57594;BME280;43423;46.510;6.686;2022-10-16T03:39:18;96484.53;;;15.05;74.60
57594;BME280;43423;46.510;6.686;2022-10-16T03:41:44;96492.31;;;15.13;74.11
57594;BME280;43423;46.510;6.686;2022-10-16T03:44:11;96481.22;;;15.18;73.90
57594;BME280;43423;46.510;6.686;2022-10-16T03:46:37;96491.03;;;15.25;72.19
57594;BME280;43423;46.510;6.686;2022-10-16T03:49:02;96502.34;;;15.32;71.67
57594;BME280;43423;46.510;6.686;2022-10-16T03:51:28;96503.09;;;15.33;69.96
57594;BME280;43423;46.510;6.686;2022-10-16T03:53:53;96497.78;;;15.29;71.86
57594;BME280;43423;46.510;6.686;2022-10-16T03:56:19;96491.03;;;15.19;70.93
57594;BME280;43423;46.510;6.686;2022-10-16T03:58:45;96500.81;;;15.31;70.56
57594;BME280;43423;46.510;6.686;2022-10-16T04:01:11;96500.84;;;15.20;71.65
57594;BME280;43423;46.510;6.686;2022-10-16T04:03:36;96504.91;;;15.14;71.45
57594;BME280;43423;46.510;6.686;2022-10-16T04:06:01;96496.63;;;15.02;72.06
57594;BME280;43423;46.510;6.686;2022-10-16T04:08:27;96501.41;;;14.91;72.76
57594;BME280;43423;46.510;6.686;2022-10-16T04:10:53;96500.94;;;14.75;74.20
57594;BME280;43423;46.510;6.686;2022-10-16T04:13:18;96502.47;;;14.54;74.58
57594;BME280;43423;46.510;6.686;2022-10-16T04:15:45;96505.00;;;14.63;74.64
57594;BME280;43423;46.510;6.686;2022-10-16T04:18:11;96508.50;;;14.64;73.98
57594;BME280;43423;46.510;6.686;2022-10-16T04:20:36;96509.75;;;14.68;74.14
57594;BME280;43423;46.510;6.686;2022-10-16T04:23:02;96497.94;;;14.73;74.42
57594;BME280;43423;46.510;6.686;2022-10-16T04:25:28;96506.22;;;14.85;74.81
57594;BME280;43423;46.510;6.686;2022-10-16T04:27:54;96515.03;;;14.89;74.46
57594;BME280;43423;46.510;6.686;2022-10-16T04:30:20;96515.50;;;14.93;74.49
57594;BME280;43423;46.510;6.686;2022-10-16T04:32:50;96508.47;;;14.92;74.63
57594;BME280;43423;46.510;6.686;2022-10-16T04:35:20;96510.22;;;14.95;74.18
57594;BME280;43423;46.510;6.686;2022-10-16T04:37:46;96507.47;;;14.95;74.62
57594;BME280;43423;46.510;6.686;2022-10-16T04:40:13;96503.19;;;14.88;74.98
57594;BME280;43423;46.510;6.686;2022-10-16T04:42:39;96508.97;;;14.85;74.73
57594;BME280;43423;46.510;6.686;2022-10-16T04:45:05;96508.97;;;14.85;75.35
57594;BME280;43423;46.510;6.686;2022-10-16T04:47:31;96515.53;;;14.82;74.91
57594;BME280;43423;46.510;6.686;2022-10-16T04:49:56;96525.59;;;14.85;75.91
57594;BME280;43423;46.510;6.686;2022-10-16T04:52:22;96521.56;;;14.80;73.66
57594;BME280;43423;46.510;6.686;2022-10-16T04:54:50;96518.78;;;14.91;73.57
57594;BME280;43423;46.510;6.686;2022-10-16T04:57:16;96521.31;;;14.95;74.76
57594;BME280;43423;46.510;6.686;2022-10-16T04:59:42;96517.03;;;14.94;73.40
57594;BME280;43423;46.510;6.686;2022-10-16T05:02:08;96521.56;;;14.97;74.48
57594;BME280;43423;46.510;6.686;2022-10-16T05:04:34;96523.81;;;14.98;74.57
57594;BME280;43423;46.510;6.686;2022-10-16T05:07:00;96522.81;;;15.01;74.50
57594;BME280;43423;46.510;6.686;2022-10-16T05:09:25;96524.31;;;15.02;74.32
57594;BME280;43423;46.510;6.686;2022-10-16T05:11:50;96518.03;;;15.02;74.38
57594;BME280;43423;46.510;6.686;2022-10-16T05:14:16;96520.53;;;15.00;74.22
57594;BME280;43423;46.510;6.686;2022-10-16T05:16:42;96515.00;;;15.00;74.89
57594;BME280;43423;46.510;6.686;2022-10-16T05:19:07;96517.53;;;14.92;73.70
57594;BME280;43423;46.510;6.686;2022-10-16T05:21:33;96518.53;;;14.95;75.28
57594;BME280;43423;46.510;6.686;2022-10-16T05:23:58;96520.03;;;14.96;74.06
57594;BME280;43423;46.510;6.686;2022-10-16T05:26:23;96514.00;;;14.92;72.59
57594;BME280;43423;46.510;6.686;2022-10-16T05:28:49;96519.28;;;14.95;73.82
57594;BME280;43423;46.510;6.686;2022-10-16T05:31:15;96517.28;;;14.96;73.57
57594;BME280;43423;46.510;6.686;2022-10-16T05:33:41;96517.03;;;14.88;73.51
57594;BME280;43423;46.510;6.686;2022-10-16T05:36:08;96524.84;;;14.90;74.32
57594;BME280;43423;46.510;6.686;2022-10-16T05:38:35;96523.34;;;14.66;73.99
57594;BME280;43423;46.510;6.686;2022-10-16T05:41:01;96522.09;;;14.67;74.99
57594;BME280;43423;46.510;6.686;2022-10-16T05:43:28;96526.63;;;14.70;74.65
57594;BME280;43423;46.510;6.686;2022-10-16T05:45:55;96521.31;;;14.61;73.74
57594;BME280;43423;46.510;6.686;2022-10-16T05:48:21;96527.09;;;14.69;73.29
57594;BME280;43423;46.510;6.686;2022-10-16T05:50:47;96527.88;;;14.47;74.80
57594;BME280;43423;46.510;6.686;2022-10-16T05:53:13;96534.16;;;14.53;74.47
57594;BME280;43423;46.510;6.686;2022-10-16T05:55:38;96536.19;;;14.58;74.39
57594;BME280;43423;46.510;6.686;2022-10-16T05:58:04;96530.91;;;14.66;74.72
57594;BME280;43423;46.510;6.686;2022-10-16T06:00:29;96531.41;;;14.64;75.18
57594;BME280;43423;46.510;6.686;2022-10-16T06:02:55;96533.16;;;14.67;74.96
57594;BME280;43423;46.510;6.686;2022-10-16T06:05:20;96524.84;;;14.67;74.65
57594;BME280;43423;46.510;6.686;2022-10-16T06:07:46;96528.88;;;14.66;73.49
57594;BME280;43423;46.510;6.686;2022-10-16T06:10:11;96537.19;;;14.66;74.20
57594;BME280;43423;46.510;6.686;2022-10-16T06:12:37;96540.94;;;14.69;74.46
57594;BME280;43423;46.510;6.686;2022-10-16T06:15:02;96550.28;;;14.71;74.79
57594;BME280;43423;46.510;6.686;2022-10-16T06:17:28;96544.22;;;14.67;74.23
57594;BME280;43423;46.510;6.686;2022-10-16T06:19:54;96550.03;;;14.64;74.97
57594;BME280;43423;46.510;6.686;2022-10-16T06:22:19;96551.00;;;14.61;73.69
57594;BME280;43423;46.510;6.686;2022-10-16T06:24:45;96553.00;;;15.05;69.04
57594;BME280;43423;46.510;6.686;2022-10-16T06:27:11;96551.97;;;15.14;67.79
57594;BME280;43423;46.510;6.686;2022-10-16T06:29:37;96561.56;;;15.13;67.93
57594;BME280;43423;46.510;6.686;2022-10-16T06:32:03;96559.53;;;15.13;69.19
57594;BME280;43423;46.510;6.686;2022-10-16T06:34:28;96566.06;;;15.16;68.54
57594;BME280;43423;46.510;6.686;2022-10-16T06:36:53;96572.63;;;15.18;69.05
57594;BME280;43423;46.510;6.686;2022-10-16T06:39:19;96582.44;;;15.14;68.95
57594;BME280;43423;46.510;6.686;2022-10-16T06:41:44;96578.91;;;15.13;71.69
57594;BME280;43423;46.510;6.686;2022-10-16T06:44:10;96587.97;;;15.08;73.70
57594;BME280;43423;46.510;6.686;2022-10-16T06:46:35;96587.75;;;14.95;73.84
57594;BME280;43423;46.510;6.686;2022-10-16T06:49:01;96591.00;;;14.99;75.06
57594;BME280;43423;46.510;6.686;2022-10-16T06:51:26;96589.25;;;14.90;76.26
57594;BME280;43423;46.510;6.686;2022-10-16T06:53:53;96592.78;;;14.96;75.61
57594;BME280;43423;46.510;6.686;2022-10-16T06:56:21;96595.56;;;15.02;74.09
57594;BME280;43423;46.510;6.686;2022-10-16T06:58:48;96599.31;;;15.04;74.16
57594;BME280;43423;46.510;6.686;2022-10-16T07:01:15;96596.81;;;15.12;72.69
57594;BME280;43423;46.510;6.686;2022-10-16T07:03:42;96591.75;;;15.22;72.05
57594;BME280;43423;46.510;6.686;2022-10-16T07:06:10;96602.59;;;15.25;72.28
57594;BME280;43423;46.510;6.686;2022-10-16T07:08:38;96610.63;;;15.29;72.84
57594;BME280;43423;46.510;6.686;2022-10-16T07:11:16;96614.91;;;15.30;74.16
57594;BME280;43423;46.510;6.686;2022-10-16T07:13:43;96615.91;;;15.32;74.36
57594;BME280;43423;46.510;6.686;2022-10-16T07:16:20;96619.41;;;15.44;73.24
57594;BME280;43423;46.510;6.686;2022-10-16T07:18:46;96633.78;;;15.37;73.49
57594;BME280;43423;46.510;6.686;2022-10-16T07:21:20;96634.56;;;15.26;74.11
57594;BME280;43423;46.510;6.686;2022-10-16T07:23:54;96640.84;;;15.32;74.04
57594;BME280;43423;46.510;6.686;2022-10-16T07:26:20;96642.59;;;15.35;70.58
57594;BME280;43423;46.510;6.686;2022-10-16T07:28:46;96644.34;;;15.44;73.16
57594;BME280;43423;46.510;6.686;2022-10-16T07:31:15;96652.91;;;15.46;75.52
57594;BME280;43423;46.510;6.686;2022-10-16T07:33:42;96655.44;;;15.50;76.85
57594;BME280;43423;46.510;6.686;2022-10-16T07:36:10;96661.22;;;15.57;77.25
57594;BME280;43423;46.510;6.686;2022-10-16T07:38:35;96660.69;;;15.70;75.34
57594;BME280;43423;46.510;6.686;2022-10-16T07:41:06;96665.19;;;15.90;72.98
57594;BME280;43423;46.510;6.686;2022-10-16T07:43:32;96668.59;;;16.18;68.52
57594;BME280;43423;46.510;6.686;2022-10-16T07:45:58;96675.59;;;16.36;68.02
57594;BME280;43423;46.510;6.686;2022-10-16T07:48:27;96675.78;;;16.50;67.72
57594;BME280;43423;46.510;6.686;2022-10-16T07:50:59;96675.00;;;16.55;65.63
57594;BME280;43423;46.510;6.686;2022-10-16T07:53:25;96679.28;;;16.56;69.52
57594;BME280;43423;46.510;6.686;2022-10-16T07:55:51;96681.00;;;16.64;67.83
57594;BME280;43423;46.510;6.686;2022-10-16T07:58:17;96681.72;;;16.76;67.62
57594;BME280;43423;46.510;6.686;2022-10-16T08:00:42;96685.66;;;16.92;67.07
57594;BME280;43423;46.510;6.686;2022-10-16T08:03:08;96693.06;;;17.14;65.30
57594;BME280;43423;46.510;6.686;2022-10-16T08:05:34;96697.59;;;17.17;63.90
57594;BME280;43423;46.510;6.686;2022-10-16T08:08:00;96703.63;;;17.21;63.40
57594;BME280;43423;46.510;6.686;2022-10-16T08:10:28;96711.72;;;17.19;62.40
57594;BME280;43423;46.510;6.686;2022-10-16T08:12:54;96706.53;;;17.04;61.41
57594;BME280;43423;46.510;6.686;2022-10-16T08:15:20;96717.56;;;17.15;60.73
57594;BME280;43423;46.510;6.686;2022-10-16T08:18:06;96713.72;;;17.24;61.67
57594;BME280;43423;46.510;6.686;2022-10-16T08:20:32;96711.13;;;17.32;63.29
57594;BME280;43423;46.510;6.686;2022-10-16T08:23:02;96709.81;;;17.38;62.16
57594;BME280;43423;46.510;6.686;2022-10-16T08:25:28;96714.66;;;17.32;63.04
57594;BME280;43423;46.510;6.686;2022-10-16T08:27:54;96712.50;;;17.49;64.53
57594;BME280;43423;46.510;6.686;2022-10-16T08:30:21;96701.75;;;17.35;64.53
57594;BME280;43423;46.510;6.686;2022-10-16T08:32:47;96713.53;;;17.46;65.22
57594;BME280;43423;46.510;6.686;2022-10-16T08:35:13;96705.03;;;17.33;66.45
57594;BME280;43423;46.510;6.686;2022-10-16T08:37:40;96714.47;;;17.54;64.73
57594;BME280;43423;46.510;6.686;2022-10-16T08:40:11;96713.16;;;17.31;67.65
57594;BME280;43423;46.510;6.686;2022-10-16T08:42:57;96710.16;;;17.53;67.43
57594;BME280;43423;46.510;6.686;2022-10-16T08:50:52;96722.94;;;17.68;63.80
57594;BME280;43423;46.510;6.686;2022-10-16T08:53:30;96728.25;;;17.96;61.78
57594;BME280;43423;46.510;6.686;2022-10-16T08:55:58;96730.69;;;18.29;62.25
57594;BME280;43423;46.510;6.686;2022-10-16T08:58:29;96729.50;;;18.44;60.39
57594;BME280;43423;46.510;6.686;2022-10-16T09:01:03;96730.00;;;18.66;62.39
57594;BME280;43423;46.510;6.686;2022-10-16T09:09:09;96736.78;;;18.90;63.37
57594;BME280;43423;46.510;6.686;2022-10-16T09:23:15;96740.31;;;19.41;61.54
57594;BME280;43423;46.510;6.686;2022-10-16T09:25:44;96738.31;;;19.55;61.65
57594;BME280;43423;46.510;6.686;2022-10-16T09:28:11;96738.72;;;19.78;60.66
57594;BME280;43423;46.510;6.686;2022-10-16T09:30:37;96734.31;;;19.83;59.37
57594;BME280;43423;46.510;6.686;2022-10-16T09:33:04;96740.16;;;19.85;59.98
57594;BME280;43423;46.510;6.686;2022-10-16T09:35:37;96743.06;;;19.92;59.44
57594;BME280;43423;46.510;6.686;2022-10-16T09:38:04;96748.34;;;20.09;58.21
57594;BME280;43423;46.510;6.686;2022-10-16T09:40:38;96745.09;;;20.05;58.38
57594;BME280;43423;46.510;6.686;2022-10-16T09:43:25;96750.16;;;20.20;58.42
57594;BME280;43423;46.510;6.686;2022-10-16T09:46:35;96749.38;;;19.93;58.62
57594;BME280;43423;46.510;6.686;2022-10-16T09:49:05;96748.34;;;20.22;58.00
57594;BME280;43423;46.510;6.686;2022-10-16T09:51:43;96751.09;;;19.96;57.56
57594;BME280;43423;46.510;6.686;2022-10-16T09:56:36;96757.13;;;20.13;58.04
57594;BME280;43423;46.510;6.686;2022-10-16T09:59:12;96750.78;;;20.13;56.05
57594;BME280;43423;46.510;6.686;2022-10-16T10:01:49;96745.00;;;20.11;57.72
57594;BME280;43423;46.510;6.686;2022-10-16T10:04:19;96744.69;;;20.01;56.98
57594;BME280;43423;46.510;6.686;2022-10-16T10:06:53;96756.38;;;20.13;56.58
57594;BME280;43423;46.510;6.686;2022-10-16T10:11:54;96744.38;;;20.31;55.07
57594;BME280;43423;46.510;6.686;2022-10-16T10:16:51;96749.41;;;20.19;56.67
57594;BME280;43423;46.510;6.686;2022-10-16T10:19:22;96746.84;;;20.48;55.81
57594;BME280;43423;46.510;6.686;2022-10-16T10:21:49;96752.75;;;20.44;52.54
57594;BME280;43423;46.510;6.686;2022-10-16T10:24:18;96747.28;;;20.39;55.11
57594;BME280;43423;46.510;6.686;2022-10-16T10:29:37;96742.78;;;20.49;54.94
57594;BME280;43423;46.510;6.686;2022-10-16T10:32:31;96738.53;;;20.69;55.31
57594;BME280;43423;46.510;6.686;2022-10-16T10:40:52;96735.00;;;20.68;56.08
57594;BME280;43423;46.510;6.686;2022-10-16T10:46:04;96736.41;;;21.09;55.19
57594;BME280;43423;46.510;6.686;2022-10-16T10:48:51;96736.09;;;21.12;53.92
57594;BME280;43423;46.510;6.686;2022-10-16T10:51:49;96736.09;;;21.12;52.62
57594;BME280;43423;46.510;6.686;2022-10-16T10:57:16;96735.97;;;21.18;51.33
57594;BME280;43423;46.510;6.686;2022-10-16T11:00:01;96733.66;;;21.30;51.01
57594;BME280;43423;46.510;6.686;2022-10-16T11:02:48;96736.78;;;21.26;51.85
57594;BME280;43423;46.510;6.686;2022-10-16T11:05:43;96737.03;;;21.70;50.11
57594;BME280;43423;46.510;6.686;2022-10-16T11:08:15;96738.50;;;21.71;49.43
57594;BME280;43423;46.510;6.686;2022-10-16T11:10:47;96736.00;;;21.81;47.06
57594;BME280;43423;46.510;6.686;2022-10-16T11:15:57;96732.66;;;21.82;48.51
57594;BME280;43423;46.510;6.686;2022-10-16T11:18:50;96730.94;;;21.79;45.79
57594;BME280;43423;46.510;6.686;2022-10-16T11:21:19;96731.66;;;22.00;48.28
57594;BME280;43423;46.510;6.686;2022-10-16T11:23:53;96729.47;;;22.07;46.26
57594;BME280;43423;46.510;6.686;2022-10-16T11:26:26;96725.31;;;22.21;48.97
57594;BME280;43423;46.510;6.686;2022-10-16T11:28:54;96725.97;;;22.42;47.31
57594;BME280;43423;46.510;6.686;2022-10-16T11:31:42;96732.59;;;22.03;47.21
57594;BME280;43423;46.510;6.686;2022-10-16T11:34:35;96725.41;;;22.08;46.60
57594;BME280;43423;46.510;6.686;2022-10-16T11:37:14;96713.72;;;22.24;48.30
57594;BME280;43423;46.510;6.686;2022-10-16T11:39:43;96708.09;;;22.17;47.10
57594;BME280;43423;46.510;6.686;2022-10-16T11:42:36;96704.13;;;21.63;49.07
57594;BME280;43423;46.510;6.686;2022-10-16T11:47:45;96700.63;;;21.91;49.60
57594;BME280;43423;46.510;6.686;2022-10-16T11:56:01;96682.31;;;21.90;49.51
57594;BME280;43423;46.510;6.686;2022-10-16T11:58:54;96677.88;;;22.23;44.95
57594;BME280;43423;46.510;6.686;2022-10-16T12:01:33;96682.16;;;22.24;47.07
57594;BME280;43423;46.510;6.686;2022-10-16T12:04:12;96682.28;;;22.47;45.23
57594;BME280;43423;46.510;6.686;2022-10-16T12:06:48;96678.72;;;22.90;45.72
57594;BME280;43423;46.510;6.686;2022-10-16T12:09:27;96687.75;;;23.04;44.43
57594;BME280;43423;46.510;6.686;2022-10-16T12:11:53;96681.41;;;23.19;44.48
57594;BME280;43423;46.510;6.686;2022-10-16T12:14:22;96690.16;;;22.92;43.66
57594;BME280;43423;46.510;6.686;2022-10-16T12:20:01;96680.28;;;23.29;43.82
57594;BME280;43423;46.510;6.686;2022-10-16T12:22:29;96675.44;;;23.45;44.36
57594;BME280;43423;46.510;6.686;2022-10-16T12:24:56;96665.91;;;23.33;43.42
57594;BME280;43423;46.510;6.686;2022-10-16T12:27:31;96671.31;;;23.16;42.77
57594;BME280;43423;46.510;6.686;2022-10-16T12:30:02;96671.69;;;23.27;42.96
57594;BME280;43423;46.510;6.686;2022-10-16T12:32:38;96674.69;;;23.37;43.75
57594;BME280;43423;46.510;6.686;2022-10-16T12:35:05;96673.41;;;23.68;45.46
57594;BME280;43423;46.510;6.686;2022-10-16T12:37:41;96666.84;;;23.35;42.85
57594;BME280;43423;46.510;6.686;2022-10-16T12:40:28;96666.41;;;22.93;42.07
57594;BME280;43423;46.510;6.686;2022-10-16T12:42:55;96666.41;;;22.93;45.24
57594;BME280;43423;46.510;6.686;2022-10-16T12:45:31;96663.44;;;22.99;42.65
57594;BME280;43423;46.510;6.686;2022-10-16T12:47:59;96653.38;;;23.34;42.20
57594;BME280;43423;46.510;6.686;2022-10-16T12:50:35;96659.75;;;23.42;44.30
57594;BME280;43423;46.510;6.686;2022-10-16T12:53:04;96664.63;;;23.72;41.78
57594;BME280;43423;46.510;6.686;2022-10-16T12:55:43;96661.25;;;23.74;43.88
57594;BME280;43423;46.510;6.686;2022-10-16T13:00:57;96646.84;;;23.39;42.40
57594;BME280;43423;46.510;6.686;2022-10-16T13:03:52;96650.41;;;23.70;44.52
57594;BME280;43423;46.510;6.686;2022-10-16T13:06:26;96653.75;;;23.91;42.96
57594;BME280;43423;46.510;6.686;2022-10-16T13:12:01;96660.66;;;24.06;42.97
57594;BME280;43423;46.510;6.686;2022-10-16T13:15:04;96664.41;;;23.85;42.23
57594;BME280;43423;46.510;6.686;2022-10-16T13:17:36;96658.06;;;23.47;42.48
57594;BME280;43423;46.510;6.686;2022-10-16T13:23:14;96657.88;;;23.83;43.80
57594;BME280;43423;46.510;6.686;2022-10-16T13:25:53;96654.69;;;24.02;41.99
57594;BME280;43423;46.510;6.686;2022-10-16T13:28:27;96652.25;;;23.75;43.04
57594;BME280;43423;46.510;6.686;2022-10-16T13:30:57;96650.78;;;23.66;41.92
57594;BME280;43423;46.510;6.686;2022-10-16T13:35:56;96645.91;;;23.67;42.89
57594;BME280;43423;46.510;6.686;2022-10-16T13:40:58;96647.72;;;24.10;42.21
57594;BME280;43423;46.510;6.686;2022-10-16T13:43:31;96650.28;;;24.23;42.91
57594;BME280;43423;46.510;6.686;2022-10-16T13:48:28;96642.00;;;23.70;42.45
57594;BME280;43423;46.510;6.686;2022-10-16T13:51:01;96645.72;;;23.88;41.87
57594;BME280;43423;46.510;6.686;2022-10-16T13:53:27;96641.00;;;23.90;42.53
57594;BME280;43423;46.510;6.686;2022-10-16T13:55:52;96647.94;;;23.89;43.20
57594;BME280;43423;46.510;6.686;2022-10-16T13:58:18;96644.00;;;23.92;42.36
57594;BME280;43423;46.510;6.686;2022-10-16T14:00:54;96656.31;;;24.12;42.11
57594;BME280;43423;46.510;6.686;2022-10-16T14:03:20;96648.81;;;24.15;42.75
57594;BME280;43423;46.510;6.686;2022-10-16T14:06:11;96650.50;;;24.26;42.06
57594;BME280;43423;46.510;6.686;2022-10-16T14:08:34;96655.19;;;24.08;42.16
57594;BME280;43423;46.510;6.686;2022-10-16T14:11:01;96651.81;;;24.17;44.00
57594;BME280;43423;46.510;6.686;2022-10-16T14:13:34;96647.69;;;24.33;41.98
57594;BME280;43423;46.510;6.686;2022-10-16T14:16:07;96651.56;;;24.45;42.21
57594;BME280;43423;46.510;6.686;2022-10-16T14:18:33;96646.00;;;24.22;43.32
57594;BME280;43423;46.510;6.686;2022-10-16T14:21:03;96644.56;;;23.53;42.69
57594;BME280;43423;46.510;6.686;2022-10-16T14:23:34;96645.13;;;23.59;43.41
57594;BME280;43423;46.510;6.686;2022-10-16T14:26:13;96646.09;;;23.77;43.24
57594;BME280;43423;46.510;6.686;2022-10-16T14:28:40;96642.72;;;23.78;42.81
57594;BME280;43423;46.510;6.686;2022-10-16T14:31:29;96645.31;;;23.91;44.30